BST,Max TemperatureF,Mean TemperatureF,Min TemperatureF,Max Dew PointF,MeanDew PointF,Min DewpointF,Max Humidity, Mean Humidity, Min Humidity, Max Sea Level PressureIn, Mean Sea Level PressureIn, Min Sea Level PressureIn, Max VisibilityMiles, Mean VisibilityMiles, Min VisibilityMiles, Max Wind SpeedMPH, Mean Wind SpeedMPH, Max Gust SpeedMPH,PrecipitationIn, CloudCover, Events, WindDirDegrees
2013-7-1,62,55,48,48,44,39,94,71,45,29.89,29.87,29.83,6,6,3,16,12,26,0.00,3,Rain,254
2013-7-2,57,52,46,54,49,43,100,82,72,29.89,29.63,29.44,6,6,6,16,7,,0.00,5,Rain,213
2013-7-3,62,58,53,55,53,50,100,80,68,29.80,29.65,29.44,6,6,6,15,7,,0.00,5,Rain,248
2013-7-4,64,60,55,61,52,46,94,75,59,30.12,29.88,29.71,6,6,2,23,13,36,0.00,5,Rain,242
2013-7-5,68,60,53,54,51,48,94,73,56,30.36,30.28,30.15,6,6,3,18,12,,0.00,4,Rain,249
2013-7-6,75,60,46,55,51,45,100,68,41,30.42,30.33,30.30,6,6,6,20,7,,0.00,3,Fog,243
2013-7-7,75,65,55,57,55,50,100,76,41,30.63,30.52,30.42,6,6,0,13,8,,0.00,6,Fog,281
2013-7-8,69,61,53,59,56,54,100,89,68,30.63,30.57,30.48,6,3,0,10,6,,0.00,7,Fog,45
2013-7-9,82,68,55,61,58,54,100,76,45,30.48,30.40,30.33,6,6,6,18,6,,0.00,4,,319
2013-7-10,62,58,53,55,54,52,100,86,72,30.42,30.39,30.36,6,6,2,15,10,,0.00,6,,52
2013-7-11,71,62,53,61,56,52,100,85,69,30.36,30.32,30.24,6,6,3,12,6,,0.00,7,,46
2013-7-12,80,65,50,63,57,48,100,71,42,30.27,30.22,30.18,6,6,1,13,5,,0.00,1,Fog,263
2013-7-13,73,64,55,61,57,54,94,84,57,30.33,30.27,30.24,6,6,5,17,9,,0.00,4,Fog,339
2013-7-14,71,63,53,55,52,48,100,71,46,30.30,30.22,30.18,6,5,3,17,8,,0.00,5,,261
2013-7-15,69,60,51,55,52,48,88,73,60,30.21,30.18,30.15,6,6,6,17,10,29,0.00,6,,251
2013-7-16,73,66,60,61,57,54,88,71,53,30.24,30.20,30.18,6,6,6,14,10,,0.00,5,Rain,252
2013-7-17,75,62,50,57,54,48,100,69,47,30.33,30.27,30.24,6,6,6,17,7,,0.00,2,,259
2013-7-18,82,70,59,63,59,55,94,71,51,30.36,30.34,30.33,6,6,6,12,7,23,0.00,2,,264
2013-7-19,71,60,48,59,56,48,100,82,60,30.39,30.38,30.36,6,5,0,15,5,,0.00,5,Fog,50
2013-7-20,66,62,57,59,57,55,100,87,73,30.36,30.33,30.27,6,5,3,16,9,,0.00,6,,56
2013-7-21,66,60,55,57,55,52,94,84,68,30.30,30.22,30.15,6,6,4,20,11,,0.00,6,,65
2013-7-22,62,60,57,59,58,55,100,94,88,30.15,30.06,30.01,6,4,1,16,9,,0.00,7,,55
2013-7-23,68,64,59,64,61,59,100,96,83,30.01,29.92,29.86,6,3,0,10,8,,0.00,7,Fog-Rain-Thunderstorm,52
2013-7-24,71,63,55,63,60,55,100,90,69,29.89,29.88,29.86,6,4,0,12,3,,0.00,4,Fog,44
2013-7-25,64,60,55,63,60,55,100,99,94,29.89,29.84,29.80,4,2,0,10,4,,0.00,6,Fog-Rain-Thunderstorm,64
2013-7-26,73,63,53,61,57,54,100,83,57,29.86,29.83,29.83,6,6,0,14,4,,0.00,3,Fog-Rain-Thunderstorm,240
2013-7-27,71,60,48,61,56,48,100,86,64,29.86,29.77,29.65,6,6,4,12,5,,0.00,3,Fog-Rain,44
2013-7-28,66,60,55,61,58,54,100,92,73,29.65,29.57,29.53,6,5,2,10,6,,0.00,5,Rain,307
2013-7-29,69,60,51,61,57,52,100,94,73,29.74,29.65,29.62,6,6,1,15,4,,0.00,4,Rain-Thunderstorm,246
2013-7-30,69,60,51,55,52,48,100,81,46,29.80,29.75,29.74,6,6,6,18,9,,0.00,3,Rain,246
2013-7-31,66,58,51,57,53,50,100,80,56,29.86,29.83,29.77,6,6,3,13,7,,0.00,3,Rain,248